createdAt,value
2018-09-20T00:00:30.976Z,95348.26
2018-09-20T00:02:59.364Z,95337.09
2018-09-20T00:05:27.813Z,95336.66
2018-09-20T00:07:56.176Z,95340.33
2018-09-20T00:10:24.540Z,95335.23
2018-09-20T00:12:52.892Z,95332.47
2018-09-20T00:15:22.099Z,95330.02
2018-09-20T00:17:50.495Z,95322.38
2018-09-20T00:20:18.854Z,95317.67
2018-09-20T00:22:47.218Z,95321.77
2018-09-20T00:25:15.588Z,95319.56
2018-09-20T00:27:43.951Z,95316.11
2018-09-20T00:30:12.336Z,95312.46
2018-09-20T00:32:40.683Z,95317.65
2018-09-20T00:35:09.104Z,95310.58
2018-09-20T00:37:37.491Z,95309.45
2018-09-20T00:40:06.044Z,95318.93
2018-09-20T00:42:34.439Z,95314.06
2018-09-20T00:45:02.842Z,95307.69
2018-09-20T00:47:31.899Z,95318.48
2018-09-20T00:50:00.690Z,95314.53
2018-09-20T00:52:29.430Z,95308.47
2018-09-20T00:54:57.857Z,95306.57
2018-09-20T00:57:26.195Z,95308.91
2018-09-20T00:59:54.695Z,95306.84
2018-09-20T01:02:23.132Z,95305.66
2018-09-20T01:04:51.496Z,95310.22
2018-09-20T01:07:19.907Z,95307.45
2018-09-20T01:09:48.346Z,95313.97
2018-09-20T01:12:16.820Z,95307.31
2018-09-20T01:14:45.124Z,95316.11
2018-09-20T01:17:13.681Z,95312.73
2018-09-20T01:19:42.075Z,95310.71
2018-09-20T01:22:10.799Z,95303.28
2018-09-20T01:24:39.341Z,95308.19
2018-09-20T01:27:08.342Z,95302.06
2018-09-20T01:29:37.340Z,95306.61
2018-09-20T01:32:06.236Z,95303.85
2018-09-20T01:34:34.932Z,95306.98
2018-09-20T01:37:04.266Z,95301.91
2018-09-20T01:39:32.694Z,95305.65
2018-09-20T01:42:01.157Z,95308.39
2018-09-20T01:44:29.560Z,95305.86
2018-09-20T01:46:58.003Z,95304.79
2018-09-20T01:49:26.420Z,95308.69
2018-09-20T01:51:55.122Z,95304.23
2018-09-20T01:54:23.544Z,95302.97
2018-09-20T01:56:52.066Z,95309.08
2018-09-20T01:59:20.548Z,95307.38
2018-09-20T02:01:48.960Z,95313.24
2018-09-20T02:04:17.464Z,95309.59
2018-09-20T02:06:46.164Z,95315.45
2018-09-20T02:09:14.669Z,95312.52
2018-09-20T02:11:43.072Z,95313.09
2018-09-20T02:14:11.617Z,95312.53
2018-09-20T02:16:40.007Z,95312.42
2018-09-20T02:19:08.564Z,95306.61
2018-09-20T02:21:36.971Z,95308.06
2018-09-20T02:24:05.369Z,95304.53
2018-09-20T02:26:33.842Z,95306.34
2018-09-20T02:29:02.283Z,95311.17
2018-09-20T02:31:30.761Z,95311.41
2018-09-20T02:33:59.276Z,95312.18
2018-09-20T02:36:27.695Z,95315.92
2018-09-20T02:38:56.221Z,95316.72
2018-09-20T02:41:24.724Z,95317.34
2018-09-20T02:43:53.267Z,95320.58
2018-09-20T02:46:21.683Z,95312.38
2018-09-20T02:48:50.077Z,95312.80
2018-09-20T02:51:18.477Z,95312.05
2018-09-20T02:53:46.920Z,95314.22
2018-09-20T02:56:15.373Z,95315.44
2018-09-20T02:58:43.755Z,95312.29
2018-09-20T03:01:12.226Z,95311.03
2018-09-20T03:03:40.709Z,95324.16
2018-09-20T03:06:09.135Z,95317.08
2018-09-20T03:08:37.463Z,95324.97
2018-09-20T03:11:06.037Z,95328.89
2018-09-20T03:13:34.475Z,95325.40
2018-09-20T03:16:02.747Z,95320.19
2018-09-20T03:18:31.261Z,95317.79
2018-09-20T03:20:59.659Z,95319.48
2018-09-20T03:23:27.965Z,95315.88
2018-09-20T03:25:56.310Z,95314.94
2018-09-20T03:28:24.692Z,95310.84
2018-09-20T03:30:53.222Z,95309.64
2018-09-20T03:33:21.386Z,95308.34
2018-09-20T03:35:49.856Z,95314.63
2018-09-20T03:38:18.202Z,95312.62
2018-09-20T03:40:46.609Z,95307.08
2018-09-20T03:43:14.974Z,95309.55
2018-09-20T03:45:43.354Z,95308.17
2018-09-20T03:48:11.694Z,95308.23
2018-09-20T03:50:40.167Z,95299.64
2018-09-20T03:53:08.536Z,95308.94
2018-09-20T03:55:36.981Z,95310.55
2018-09-20T03:58:05.413Z,95308.08
2018-09-20T04:00:33.855Z,95304.61
2018-09-20T04:03:02.336Z,95305.80
2018-09-20T04:05:30.748Z,95311.09
2018-09-20T04:07:59.199Z,95302.89
2018-09-20T04:10:27.732Z,95297.55
2018-09-20T04:12:56.127Z,95298.27
2018-09-20T04:15:24.599Z,95290.91
2018-09-20T04:17:52.978Z,95298.50
2018-09-20T04:20:21.428Z,95295.43
2018-09-20T04:23:19.138Z,95286.13
2018-09-20T04:25:47.482Z,95288.89
2018-09-20T04:28:15.781Z,95281.35
2018-09-20T04:30:44.091Z,95278.38
2018-09-20T04:33:12.450Z,95281.09
2018-09-20T04:35:40.807Z,95283.53
2018-09-20T04:38:10.247Z,95283.43
2018-09-20T04:40:38.580Z,95292.41
2018-09-20T04:43:07.031Z,95292.85
2018-09-20T04:45:35.298Z,95296.95
2018-09-20T04:48:03.563Z,95291.42
2018-09-20T04:50:31.811Z,95289.41
2018-09-20T04:53:00.074Z,95287.20
2018-09-20T04:55:28.360Z,95285.79
2018-09-20T04:57:56.691Z,95297.71
2018-09-20T05:00:24.966Z,95297.01
2018-09-20T05:02:53.295Z,95301.29
2018-09-20T05:05:21.591Z,95305.30
2018-09-20T05:07:49.985Z,95307.44
2018-09-20T05:10:18.478Z,95308.06
2018-09-20T05:12:47.079Z,95311.21
2018-09-20T05:15:15.460Z,95303.56
2018-09-20T05:17:44.030Z,95309.88
2018-09-20T05:20:12.782Z,95313.93
2018-09-20T05:22:41.650Z,95315.36
2018-09-20T05:25:10.121Z,95313.71
2018-09-20T05:27:39.080Z,95312.28
2018-09-20T05:30:07.984Z,95321.52
2018-09-20T05:32:36.755Z,95318.91
2018-09-20T05:35:05.209Z,95316.00
2018-09-20T05:37:34.622Z,95313.87
2018-09-20T05:40:03.077Z,95321.31
2018-09-20T05:42:31.449Z,95316.16
2018-09-20T05:44:59.819Z,95310.14
2018-09-20T05:47:28.583Z,95307.28
2018-09-20T05:49:57.076Z,95305.69
2018-09-20T05:52:25.500Z,95300.80
2018-09-20T05:54:53.897Z,95304.70
2018-09-20T05:57:22.182Z,95308.24
2018-09-20T05:59:50.539Z,95302.22
2018-09-20T06:02:18.837Z,95307.84
2018-09-20T06:04:47.126Z,95307.26
2018-09-20T06:07:15.368Z,95306.30
2018-09-20T06:09:43.679Z,95317.30
2018-09-20T06:12:11.991Z,95309.06
2018-09-20T06:14:40.291Z,95312.36
2018-09-20T06:17:08.615Z,95309.40
2018-09-20T06:19:37.037Z,95311.25
2018-09-20T06:22:05.533Z,95307.41
2018-09-20T06:24:33.991Z,95301.47
2018-09-20T06:27:02.428Z,95304.41
2018-09-20T06:29:30.845Z,95303.80
2018-09-20T06:31:59.334Z,95300.77
2018-09-20T06:34:27.872Z,95298.63
2018-09-20T06:36:56.366Z,95298.13
2018-09-20T06:39:24.735Z,95295.16
2018-09-20T06:41:53.179Z,95297.88
2018-09-20T06:44:21.640Z,95291.29
2018-09-20T06:46:50.135Z,95285.42
2018-09-20T06:49:18.547Z,95289.41
2018-09-20T06:51:46.984Z,95283.41
2018-09-20T06:54:15.415Z,95283.14
2018-09-20T06:56:43.943Z,95280.30
2018-09-20T06:59:12.274Z,95269.82
2018-09-20T07:01:40.738Z,95271.23
2018-09-20T07:04:09.131Z,95274.17
2018-09-20T07:06:37.422Z,95278.70
2018-09-20T07:09:08.930Z,95286.43
2018-09-20T07:11:37.453Z,95288.81
2018-09-20T07:14:05.843Z,95289.41
2018-09-20T07:16:34.304Z,95283.20
2018-09-20T07:19:03.005Z,95282.41
2018-09-20T07:21:31.384Z,95278.01
2018-09-20T07:23:59.811Z,95281.44
2018-09-20T07:26:29.709Z,95274.83
2018-09-20T07:28:58.183Z,95286.15
2018-09-20T07:31:26.601Z,95277.54
2018-09-20T07:33:55.029Z,95274.30
2018-09-20T07:36:23.438Z,95277.97
2018-09-20T07:38:51.839Z,95286.23
2018-09-20T07:41:20.323Z,95280.84
2018-09-20T07:43:48.745Z,95285.28
2018-09-20T07:46:17.121Z,95283.86
2018-09-20T07:48:45.537Z,95290.20
2018-09-20T07:51:13.931Z,95289.75
2018-09-20T07:53:42.378Z,95284.01
2018-09-20T07:56:10.730Z,95292.84
2018-09-20T07:58:39.122Z,95299.23
2018-09-20T08:01:07.474Z,95303.48
2018-09-20T08:03:35.940Z,95297.23
2018-09-20T08:06:04.402Z,95302.22
2018-09-20T08:08:32.756Z,95297.48
2018-09-20T08:11:01.155Z,95304.64
2018-09-20T08:13:29.554Z,95297.92
2018-09-20T08:15:57.996Z,95293.92
2018-09-20T08:18:26.392Z,95293.78
2018-09-20T08:20:54.848Z,95285.27
2018-09-20T08:23:23.284Z,95293.68
2018-09-20T08:25:51.675Z,95282.97
2018-09-20T08:28:20.063Z,95283.61
2018-09-20T08:30:48.619Z,95286.55
2018-09-20T08:33:17.036Z,95276.05
2018-09-20T08:35:45.462Z,95270.72
2018-09-20T08:38:13.888Z,95277.77
2018-09-20T08:40:42.306Z,95262.72
2018-09-20T08:43:10.707Z,95270.06
2018-09-20T08:45:39.158Z,95272.59
2018-09-20T08:48:07.544Z,95275.98
2018-09-20T08:50:35.950Z,95276.52
2018-09-20T08:53:04.380Z,95279.81
2018-09-20T08:55:32.815Z,95279.11
2018-09-20T08:58:01.317Z,95274.05
2018-09-20T09:00:29.786Z,95283.44
2018-09-20T09:02:58.296Z,95275.20
2018-09-20T09:05:26.720Z,95277.32
2018-09-20T09:07:55.102Z,95284.38
2018-09-20T09:10:23.491Z,95279.98
2018-09-20T09:12:51.924Z,95284.50
2018-09-20T09:15:20.309Z,95290.92
2018-09-20T09:17:48.715Z,95293.94
2018-09-20T09:20:17.205Z,95296.23
2018-09-20T09:22:45.606Z,95292.23
2018-09-20T09:25:14.013Z,95286.42
2018-09-20T09:27:42.394Z,95289.83
2018-09-20T09:30:11.145Z,95282.53
2018-09-20T09:32:39.458Z,95279.28
2018-09-20T09:35:07.880Z,95280.73
2018-09-20T09:37:36.247Z,95279.59
2018-09-20T09:40:04.676Z,95279.97
2018-09-20T09:42:33.039Z,95282.55
2018-09-20T09:45:01.431Z,95277.54
2018-09-20T09:47:29.898Z,95276.16
2018-09-20T09:49:58.284Z,95275.39
2018-09-20T09:52:26.684Z,95270.53
2018-09-20T09:54:55.120Z,95275.36
2018-09-20T09:57:23.568Z,95271.65
2018-09-20T09:59:52.017Z,95269.00
2018-09-20T10:02:20.506Z,95269.77
2018-09-20T10:04:48.879Z,95277.05
2018-09-20T10:07:17.479Z,95266.09
2018-09-20T10:09:45.915Z,95258.56
2018-09-20T10:12:14.377Z,95257.54
2018-09-20T10:14:42.750Z,95260.28
2018-09-20T10:17:11.087Z,95267.01
2018-09-20T10:19:39.464Z,95259.62
2018-09-20T10:22:07.821Z,95257.31
2018-09-20T10:24:36.273Z,95262.38
2018-09-20T10:27:04.676Z,95264.31
2018-09-20T10:29:33.096Z,95254.73
2018-09-20T10:32:01.511Z,95252.56
2018-09-20T10:34:29.934Z,95254.48
2018-09-20T10:36:58.331Z,95251.33
2018-09-20T10:39:26.876Z,95251.72
2018-09-20T10:41:55.315Z,95248.50
2018-09-20T10:44:23.799Z,95243.33
2018-09-20T10:46:52.214Z,95243.08
2018-09-20T10:49:20.632Z,95240.79
2018-09-20T10:51:49.133Z,95237.63
2018-09-20T10:54:17.585Z,95230.75
2018-09-20T10:56:45.973Z,95235.02
2018-09-20T10:59:14.389Z,95224.06
2018-09-20T11:01:42.790Z,95222.61
2018-09-20T11:04:11.190Z,95213.17
2018-09-20T11:06:39.612Z,95215.25
2018-09-20T11:09:08.812Z,95219.48
2018-09-20T11:11:37.222Z,95222.13
2018-09-20T11:14:05.652Z,95222.28
2018-09-20T11:16:34.143Z,95210.86
2018-09-20T11:19:02.578Z,95203.16
2018-09-20T11:21:31.111Z,95204.30
2018-09-20T11:23:59.554Z,95206.37
2018-09-20T11:26:27.943Z,95205.42
2018-09-20T11:28:56.389Z,95209.30
2018-09-20T11:31:24.863Z,95207.37
2018-09-20T11:33:53.276Z,95203.98
2018-09-20T11:36:21.943Z,95206.03
2018-09-20T11:38:50.310Z,95200.88
2018-09-20T11:41:18.723Z,95193.63
2018-09-20T11:43:47.126Z,95197.95
2018-09-20T11:46:15.523Z,95195.19
2018-09-20T11:48:43.939Z,95202.59
2018-09-20T11:51:12.299Z,95203.81
2018-09-20T11:53:40.734Z,95192.44
2018-09-20T11:56:09.114Z,95194.41
2018-09-20T11:58:37.523Z,95191.34
2018-09-20T12:01:05.963Z,95175.38
2018-09-20T12:03:34.379Z,95176.41
2018-09-20T12:06:02.803Z,95172.42
2018-09-20T12:08:31.210Z,95167.21
2018-09-20T12:10:59.619Z,95164.39
2018-09-20T12:13:28.028Z,95160.91
2018-09-20T12:15:56.423Z,95156.97
2018-09-20T12:18:24.851Z,95155.27
2018-09-20T12:20:53.299Z,95157.16
2018-09-20T12:23:21.738Z,95168.13
2018-09-20T12:25:50.287Z,95163.38
2018-09-20T12:28:18.636Z,95162.19
2018-09-20T12:30:47.006Z,95153.25
2018-09-20T12:33:15.347Z,95157.08
2018-09-20T12:35:43.977Z,95147.41
2018-09-20T12:38:12.216Z,95145.81
2018-09-20T12:40:40.559Z,95143.49
2018-09-20T12:43:09.011Z,95145.57
2018-09-20T12:45:37.402Z,95144.31
2018-09-20T12:48:05.831Z,95142.60
2018-09-20T12:50:34.281Z,95146.87
2018-09-20T12:53:02.546Z,95149.08
2018-09-20T12:55:30.948Z,95134.96
2018-09-20T12:57:59.330Z,95144.44
2018-09-20T13:00:27.736Z,95132.60
2018-09-20T13:02:56.112Z,95136.06
2018-09-20T13:05:24.494Z,95134.12
2018-09-20T13:07:52.898Z,95129.73
2018-09-20T13:10:21.268Z,95125.28
2018-09-20T13:12:49.658Z,95123.45
2018-09-20T13:15:18.016Z,95122.37
2018-09-20T13:17:46.388Z,95121.38
2018-09-20T13:20:14.828Z,95116.86
2018-09-20T13:22:43.169Z,95120.37
2018-09-20T13:25:11.628Z,95123.78
2018-09-20T13:27:40.012Z,95110.64
2018-09-20T13:30:08.608Z,95107.37
2018-09-20T13:32:37.133Z,95100.76
2018-09-20T13:35:05.676Z,95106.65
2018-09-20T13:40:18.547Z,95102.98
2018-09-20T13:42:47.869Z,95103.47
2018-09-20T13:45:16.181Z,95106.75
2018-09-20T13:47:44.619Z,95111.62
2018-09-20T13:50:13.046Z,95109.52
2018-09-20T13:52:41.544Z,95103.41
2018-09-20T13:55:10.054Z,95094.73
2018-09-20T13:57:38.494Z,95099.70
2018-09-20T14:00:09.356Z,95093.17
2018-09-20T14:02:38.059Z,95094.26
2018-09-20T14:05:08.576Z,95094.23
2018-09-20T14:07:37.214Z,95096.98
2018-09-20T14:10:06.669Z,95096.36
2018-09-20T14:12:35.176Z,95085.39
2018-09-20T14:15:03.628Z,95084.45
2018-09-20T14:17:32.127Z,95089.41
2018-09-20T14:20:01.551Z,95074.63
2018-09-20T14:22:30.004Z,95080.52
2018-09-20T14:24:58.474Z,95072.19
2018-09-20T14:27:26.884Z,95065.86
2018-09-20T14:29:55.455Z,95062.66
2018-09-20T14:32:23.929Z,95051.14
2018-09-20T14:34:53.443Z,95056.10
2018-09-20T14:37:21.963Z,95056.01
2018-09-20T14:39:50.387Z,95056.95
2018-09-20T14:42:18.910Z,95046.44
2018-09-20T14:44:47.571Z,95051.84
2018-09-20T14:47:19.590Z,95047.84
2018-09-20T14:49:48.123Z,95050.38
2018-09-20T14:52:16.632Z,95053.00
2018-09-20T14:54:45.153Z,95055.22
2018-09-20T14:57:13.630Z,95056.16
2018-09-20T14:59:42.062Z,95043.78
2018-09-20T15:02:10.480Z,95050.67
2018-09-20T15:04:38.883Z,95041.00
2018-09-20T15:07:07.340Z,95045.41
2018-09-20T15:09:35.829Z,95039.70
2018-09-20T15:12:05.292Z,95043.59
2018-09-20T15:14:34.719Z,95037.84
2018-09-20T15:17:09.831Z,95028.21
2018-09-20T15:19:38.200Z,95032.45
2018-09-20T15:22:06.835Z,95027.33
2018-09-20T15:24:35.350Z,95024.74
2018-09-20T15:27:04.603Z,95019.23
2018-09-20T15:29:32.958Z,95022.21
2018-09-20T15:32:01.361Z,95017.78
2018-09-20T15:34:29.779Z,95017.85
2018-09-20T15:36:58.153Z,95010.08
2018-09-20T15:39:28.547Z,95005.22
2018-09-20T15:41:56.988Z,95008.78
2018-09-20T15:44:25.510Z,95010.00
2018-09-20T15:46:53.923Z,95006.13
2018-09-20T15:49:22.383Z,95000.24
2018-09-20T15:51:51.008Z,94994.75
2018-09-20T15:54:19.392Z,94992.05
2018-09-20T15:56:47.677Z,94984.63
2018-09-20T15:59:15.981Z,94992.77
2018-09-20T16:01:44.431Z,94988.97
2018-09-20T16:04:12.962Z,94989.16
2018-09-20T16:06:41.543Z,94990.13
2018-09-20T16:09:11.408Z,94989.07
2018-09-20T16:11:40.016Z,94995.33
2018-09-20T16:14:08.666Z,94991.53
2018-09-20T16:16:37.071Z,94987.59
2018-09-20T16:19:06.444Z,94982.27
2018-09-20T16:21:34.878Z,94990.20
2018-09-20T16:24:03.251Z,94975.64
2018-09-20T16:26:31.642Z,94968.88
2018-09-20T16:29:12.927Z,94968.53
2018-09-20T16:33:56.512Z,94966.45
2018-09-20T16:36:32.551Z,94960.84
2018-09-20T16:39:08.007Z,94968.73
2018-09-20T16:41:39.371Z,94958.47
2018-09-20T16:44:07.846Z,94947.95
2018-09-20T16:46:36.230Z,94951.23
2018-09-20T16:49:04.725Z,94944.30
2018-09-20T16:51:34.193Z,94941.45
2018-09-20T16:54:03.653Z,94932.70
2018-09-20T16:56:32.102Z,94937.33
2018-09-20T16:59:00.553Z,94932.20
2018-09-20T17:01:28.972Z,94931.58
2018-09-20T17:03:57.450Z,94934.92
2018-09-20T17:06:25.915Z,94935.16
2018-09-20T17:08:54.379Z,94930.09
2018-09-20T17:11:22.876Z,94939.09
2018-09-20T17:13:51.315Z,94939.29
2018-09-20T17:16:29.863Z,94940.03
2018-09-20T17:18:58.255Z,94940.15
2018-09-20T17:21:26.690Z,94936.27
2018-09-20T17:23:55.122Z,94931.02
2018-09-20T17:26:23.550Z,94929.20
2018-09-20T17:28:51.958Z,94925.05
2018-09-20T17:31:20.483Z,94928.06
2018-09-20T17:33:48.919Z,94922.81
2018-09-20T17:36:17.486Z,94924.23
2018-09-20T17:38:47.302Z,94924.67
2018-09-20T17:41:19.439Z,94928.22
2018-09-20T17:43:50.102Z,94914.77
2018-09-20T17:46:18.553Z,94925.42
2018-09-20T17:48:46.931Z,94918.02
2018-09-20T17:51:16.307Z,94901.98
2018-09-20T17:53:45.183Z,94901.37
2018-09-20T17:56:13.977Z,94899.88
2018-09-20T17:58:43.058Z,94905.12
2018-09-20T18:01:11.523Z,94896.95
2018-09-20T18:03:40.000Z,94897.00
2018-09-20T18:06:08.456Z,94893.77
2018-09-20T18:08:36.939Z,94893.27
2018-09-20T18:11:05.364Z,94897.17
2018-09-20T18:13:33.903Z,94888.70
2018-09-20T18:16:02.342Z,94888.67
2018-09-20T18:18:30.838Z,94888.09
2018-09-20T18:20:59.284Z,94886.77
2018-09-20T18:23:27.627Z,94892.44
2018-09-20T18:25:56.037Z,94886.19
2018-09-20T18:28:24.963Z,94883.79
2018-09-20T18:30:54.028Z,94879.20
2018-09-20T18:33:22.640Z,94883.00
2018-09-20T18:35:57.697Z,94880.02
2018-09-20T18:38:26.160Z,94876.20
2018-09-20T18:40:54.594Z,94875.44
2018-09-20T18:43:23.024Z,94871.39
2018-09-20T18:45:51.464Z,94878.19
2018-09-20T18:48:19.895Z,94870.16
2018-09-20T18:50:48.357Z,94870.52
2018-09-20T18:53:16.807Z,94867.06
2018-09-20T18:55:45.463Z,94871.25
2018-09-20T18:58:13.890Z,94863.61
2018-09-20T19:00:42.320Z,94864.16
2018-09-20T19:03:10.785Z,94868.71
2018-09-20T19:05:39.216Z,94866.30
2018-09-20T19:08:07.626Z,94861.36
2018-09-20T19:10:36.049Z,94859.32
2018-09-20T19:13:04.509Z,94857.66
2018-09-20T19:15:32.976Z,94856.51
2018-09-20T19:18:01.408Z,94853.09
2018-09-20T19:20:29.787Z,94855.62
2018-09-20T19:22:58.179Z,94854.86
2018-09-20T19:25:26.616Z,94851.34
2018-09-20T19:27:55.083Z,94845.25
2018-09-20T19:30:23.555Z,94844.36
2018-09-20T19:32:51.974Z,94845.12
2018-09-20T19:35:20.473Z,94839.11
2018-09-20T19:37:48.884Z,94838.34
2018-09-20T19:40:17.362Z,94836.91
2018-09-20T19:42:45.730Z,94838.20
2018-09-20T19:45:14.162Z,94828.98
2018-09-20T19:47:42.734Z,94826.53
2018-09-20T19:50:11.130Z,94821.03
2018-09-20T19:52:39.535Z,94821.48
2018-09-20T19:55:07.968Z,94813.42
2018-09-20T19:57:36.396Z,94813.11
2018-09-20T20:00:04.991Z,94815.00
2018-09-20T20:02:33.411Z,94808.70
2018-09-20T20:05:01.902Z,94810.80
2018-09-20T20:07:30.360Z,94811.66
2018-09-20T20:09:58.838Z,94808.03
2018-09-20T20:12:27.223Z,94805.06
2018-09-20T20:14:55.671Z,94806.81
2018-09-20T20:17:24.092Z,94805.85
2018-09-20T20:19:52.754Z,94805.40
2018-09-20T20:22:21.087Z,94807.61
2018-09-20T20:24:49.614Z,94803.07
2018-09-20T20:27:18.107Z,94799.67
2018-09-20T20:29:46.628Z,94796.39
2018-09-20T20:32:15.156Z,94797.58
2018-09-20T20:34:43.555Z,94791.86
2018-09-20T20:37:11.926Z,94788.84
2018-09-20T20:39:40.400Z,94783.94
2018-09-20T20:42:08.642Z,94782.18
2018-09-20T20:44:37.056Z,94767.28
2018-09-20T20:47:05.442Z,94765.54
2018-09-20T20:49:33.843Z,94765.56
2018-09-20T20:52:02.260Z,94755.74
2018-09-20T20:54:30.684Z,94758.48
2018-09-20T20:56:59.067Z,94754.00
2018-09-20T20:59:27.392Z,94755.04
2018-09-20T21:01:55.736Z,94748.58
2018-09-20T21:04:24.078Z,94750.34
2018-09-20T21:06:52.429Z,94739.91
2018-09-20T21:09:20.804Z,94738.78
2018-09-20T21:11:49.160Z,94736.03
2018-09-20T21:14:17.506Z,94740.70
2018-09-20T21:16:45.807Z,94742.41
2018-09-20T21:19:14.159Z,94745.30
2018-09-20T21:21:42.513Z,94735.17
2018-09-20T21:24:10.852Z,94731.83
2018-09-20T21:26:39.214Z,94724.08
2018-09-20T21:29:07.536Z,94730.44
2018-09-20T21:31:35.875Z,94730.11
2018-09-20T21:34:04.210Z,94725.58
2018-09-20T21:36:32.526Z,94723.96
2018-09-20T21:39:00.872Z,94723.19
2018-09-20T21:41:29.236Z,94726.05
2018-09-20T21:43:57.623Z,94723.84
2018-09-20T21:46:25.938Z,94717.44
2018-09-20T21:48:54.299Z,94714.91
2018-09-20T21:51:22.650Z,94714.36
2018-09-20T21:53:51.987Z,94706.91
2018-09-20T21:56:20.356Z,94704.45
2018-09-20T21:58:48.740Z,94700.83
2018-09-20T22:01:17.062Z,94697.13
2018-09-20T22:03:45.423Z,94699.19
2018-09-20T22:06:13.751Z,94693.98
2018-09-20T22:08:42.206Z,94690.70
2018-09-20T22:11:10.570Z,94682.78
2018-09-20T22:13:38.970Z,94685.53
2018-09-20T22:16:07.370Z,94679.60
2018-09-20T22:18:35.726Z,94675.31
2018-09-20T22:21:04.173Z,94668.39
2018-09-20T22:23:32.515Z,94666.28
2018-09-20T22:26:00.899Z,94665.63
2018-09-20T22:28:29.320Z,94664.30
2018-09-20T22:30:57.725Z,94662.77
2018-09-20T22:33:26.094Z,94665.47
2018-09-20T22:35:54.481Z,94661.69
2018-09-20T22:38:22.891Z,94661.55
2018-09-20T22:40:51.316Z,94654.75
2018-09-20T22:43:19.606Z,94654.95
2018-09-20T22:45:48.056Z,94651.34
2018-09-20T22:48:16.432Z,94649.03
2018-09-20T22:50:44.828Z,94651.91
2018-09-20T22:53:13.207Z,94644.09
2018-09-20T22:55:41.639Z,94644.41
2018-09-20T22:58:10.009Z,94635.28
2018-09-20T23:00:38.428Z,94632.92
2018-09-20T23:03:06.870Z,94633.42
2018-09-20T23:05:35.263Z,94630.10
2018-09-20T23:08:03.612Z,94625.59
2018-09-20T23:10:31.934Z,94629.25
2018-09-20T23:13:00.349Z,94620.48
2018-09-20T23:15:28.747Z,94628.02
2018-09-20T23:17:57.088Z,94614.60
2018-09-20T23:20:25.490Z,94616.03
2018-09-20T23:22:53.873Z,94619.57
2018-09-20T23:25:22.228Z,94614.18
2018-09-20T23:27:50.612Z,94606.30
2018-09-20T23:30:19.190Z,94604.28
2018-09-20T23:32:47.494Z,94600.75
2018-09-20T23:35:15.852Z,94592.53
2018-09-20T23:37:44.296Z,94587.77
2018-09-20T23:40:12.724Z,94587.56
2018-09-20T23:42:41.356Z,94597.12
2018-09-20T23:45:09.666Z,94578.61
2018-09-20T23:47:38.110Z,94588.22
2018-09-20T23:50:06.419Z,94577.77
2018-09-20T23:52:34.694Z,94578.53
2018-09-20T23:55:03.018Z,94570.93
2018-09-20T23:57:31.347Z,94571.27
2018-09-20T23:59:59.670Z,94568.84
